Latest Weather Observations for Loxton

IDS60801

Issued at 3:31 pm CDT Tuesday 24 January 2017 (issued every 30 minutes, with the page automatically refreshed every 10 minutes)

About weather observations | Map of weather stations | Latest weather observations for SA | Other Formats
Station Details ID: 024024 Name: LOXTON RESEARCH CENTRE Lat: -34.44 Lon: 140.60 Height: 30.1 m
Data from the previous 72 hours. | See also: Recent months at Loxton
Date/Time
CDT
Temp
°C
App
Temp
°C
Dew
Point
°C
Rel
Hum
%
Delta-T
°C
Wind Press
QNH
hPa
Press
MSL
hPa
Rain since
9am
mm
Dir  Spd
km/h
Gust
km/h
Spd
kts
Gust
kts
24/03:00pm 25.5 21.7 8.9 35 9.0 SSW 19 32 10 17 1016.2 1016.0 0.0
24/02:30pm 26.0 22.1 9.4 35 9.1 S 20 32 11 17 1016.2 1016.0 0.0
24/02:00pm 25.2 21.5 9.5 37 8.6 SSW 19 30 10 16 1016.5 1016.3 0.0
24/01:30pm 24.6 20.7 9.6 38 8.2 SSW 20 32 11 17 1016.4 1016.2 0.0
24/01:00pm 24.5 20.0 10.2 40 7.9 S 24 35 13 19 1016.5 1016.3 0.0
24/12:30pm 23.5 19.8 10.0 42 7.4 S 20 35 11 19 1016.8 1016.6 0.0
24/12:00pm 23.0 19.1 10.7 45 6.8 SSW 22 33 12 18 1016.9 1016.7 0.0
24/11:30am 22.5 18.8 11.4 49 6.2 S 22 37 12 20 1016.7 1016.5 0.0
24/11:00am 22.1 18.0 11.3 50 6.0 S 24 39 13 21 1016.6 1016.4 0.0
24/10:30am 21.5 17.8 11.4 52 5.6 S 22 35 12 19 1016.4 1016.2 0.0
24/10:00am 20.7 16.3 11.7 56 5.0 S 26 37 14 20 1016.3 1016.1 0.0
24/09:30am 19.9 15.5 11.6 58 4.6 S 26 41 14 22 1016.2 1016.0 0.0
24/09:00am 19.3 16.4 13.9 71 3.1 SSW 22 33 12 18 1016.0 1015.8 3.8
24/08:30am 18.9 15.1 13.6 71 3.0 SSW 26 39 14 21 1015.3 1015.1 3.8
24/08:00am 18.9 15.6 15.1 78 2.2 SSW 26 35 14 19 1014.8 1014.6 3.8
24/07:30am 18.1 16.6 15.4 84 1.6 SSW 17 24 9 13 1014.5 1014.3 3.8
24/07:00am 17.9 17.0 15.9 88 1.2 SSW 15 20 8 11 1014.0 1013.8 3.8
24/06:30am 18.0 17.1 15.8 87 1.3 SSW 15 20 8 11 1013.5 1013.3 3.8
24/06:00am 18.3 16.6 15.8 85 1.5 SSW 19 32 10 17 1012.8 1012.6 3.8
24/05:30am 19.1 16.3 15.4 79 2.2 SSW 24 39 13 21 1012.1 1012.0 3.8
24/05:00am 19.5 18.0 16.7 84 1.7 SSW 20 28 11 15 1011.6 1011.5 3.8
24/04:30am 19.7 17.5 16.9 84 1.7 SW 24 37 13 20 1010.8 1010.7 3.6
24/04:00am 20.4 18.3 18.1 87 1.4 SSW 26 39 14 21 1010.2 1010.1 3.6
24/03:30am 20.7 19.4 19.0 90 1.1 SSW 24 39 13 21 1009.9 1009.8 3.6
24/03:00am 21.0 19.8 19.3 90 1.1 SSW 24 37 13 20 1009.3 1009.2 3.6
24/02:30am 21.7 20.5 20.0 90 1.1 SW 26 43 14 23 1008.8 1008.7 3.6
24/02:27am 22.6 22.7 20.4 87 1.4 WSW 20 41 11 22 1008.7 1008.6 3.6
24/02:00am 23.8 25.4 21.4 86 1.6 W 15 22 8 12 1008.1 1008.0 3.6
24/01:30am 24.0 25.2 21.4 85 1.7 W 17 24 9 13 1008.4 1008.3 3.6
24/01:00am 24.3 24.9 21.3 83 2.0 W 20 28 11 15 1008.4 1008.3 3.6
24/12:30am 24.5 25.5 21.8 85 1.8 W 19 28 10 15 1008.5 1008.4 3.6
24/12:00am 24.7 27.1 22.2 86 1.7 W 13 24 7 13 1007.8 1007.7 3.6
 
Date/Time
CDT
Temp
°C
App
Temp
°C
Dew
Point
°C
Rel
Hum
%
Delta-T
°C
Wind Press
QNH
hPa
Press
MSL
hPa
Rain since
9am
mm
Dir  Spd
km/h
Gust
km/h
Spd
kts
Gust
kts
23/11:30pm 24.4 27.1 22.8 91 1.1 W 13 19 7 10 1007.5 1007.4 3.6
23/11:00pm 24.3 27.0 22.8 91 1.0 W 13 19 7 10 1007.2 1007.1 3.6
23/10:30pm 24.1 27.2 22.8 92 0.9 W 11 15 6 8 1007.1 1007.0 3.6
23/10:00pm 24.0 27.6 23.0 94 0.7 WNW 9 13 5 7 1007.3 1007.2 3.2
23/09:30pm 23.7 26.7 22.7 94 0.7 NW 11 17 6 9 1006.8 1006.7 3.0
23/09:00pm 24.1 26.5 22.3 90 1.2 W 13 17 7 9 1006.8 1006.7 0.4
23/08:30pm 25.3 25.8 21.1 77 2.8 WSW 20 28 11 15 1006.8 1006.7 0.0
23/08:00pm 26.7 26.1 20.5 69 4.1 SW 24 33 13 18 1006.1 1006.0 0.0
23/07:30pm 27.5 27.7 20.5 65 4.6 SW 20 32 11 17 1005.2 1005.1 0.0
23/07:00pm 28.7 28.0 19.5 57 6.0 SSW 22 32 12 17 1004.4 1004.3 0.0
23/06:30pm 30.4 28.2 16.8 44 8.6 SSW 24 37 13 20 1003.8 1003.7 0.0
23/06:00pm 32.5 30.5 15.5 36 10.6 SSW 20 30 11 16 1003.5 1003.4 0.0
23/05:30pm 34.3 31.8 14.0 29 12.5 SSW 20 30 11 16 1003.2 1003.1 0.0
23/05:00pm 34.7 31.1 11.7 24 13.6 SW 22 32 12 17 1002.8 1002.7 0.0
23/04:30pm 35.7 31.2 11.3 22 14.5 SW 26 37 14 20 1003.0 1002.9 0.0
23/04:00pm 36.3 30.6 9.9 20 15.3 WSW 30 48 16 26 1002.9 1002.8 0.0
23/03:56pm 37.2 32.5 9.3 18 16.1 W 24 44 13 24 1002.8 1002.7 0.0
23/03:30pm 38.6 36.3 13.1 22 15.7 W 17 26 9 14 1002.6 1002.5 0.0
23/03:00pm 39.9 37.2 10.4 17 17.6 WNW 15 30 8 16 1002.7 1002.6 0.0
23/02:30pm 39.5 36.8 10.5 17 17.3 NNW 15 20 8 11 1003.0 1002.9 0.0
23/02:00pm 39.1 35.7 10.6 18 16.9 N 19 32 10 17 1003.2 1003.1 0.0
23/01:30pm 38.4 35.5 9.5 17 16.9 NNW 15 24 8 13 1003.4 1003.3 0.0
23/01:00pm 38.1 35.3 8.6 16 16.9 N 13 20 7 11 1003.7 1003.6 0.0
23/12:30pm 37.4 33.4 6.8 15 17.1 NNW 17 32 9 17 1004.2 1004.1 0.0
23/12:00pm 36.0 32.4 6.9 16 16.2 NNW 15 26 8 14 1004.6 1004.5 0.0
23/11:30am 36.2 32.9 8.2 18 15.9 N 15 26 8 14 1004.9 1004.8 0.0
23/11:00am 34.9 32.0 8.1 19 15.1 N 13 22 7 12 1005.1 1005.0 0.0
23/10:30am 33.5 31.1 9.9 23 13.6 N 13 22 7 12 1005.3 1005.2 0.0
23/10:00am 32.4 31.0 10.9 26 12.5 N 9 13 5 7 1005.4 1005.3 0.0
23/09:30am 31.2 29.3 10.5 28 11.9 N 11 15 6 8 1005.5 1005.4 0.0
23/09:00am 30.0 28.0 10.1 29 11.3 N 11 15 6 8 1005.8 1005.7 0.0
23/08:30am 28.3 28.0 12.6 38 9.2 NNE 6 9 3 5 1005.8 1005.7 0.0
23/08:00am 26.0 26.6 14.3 48 7.0 NE 4 7 2 4 1005.7 1005.6 0.0
23/07:30am 24.1 25.8 15.1 57 5.4 CALM 0 0 0 0 1005.6 1005.5 0.0
23/07:00am 21.0 23.6 17.6 81 2.1 CALM 0 0 0 0 1005.5 1005.4 0.0
23/06:30am 20.1 22.5 17.0 82 1.9 CALM 0 0 0 0 1005.2 1005.1 0.0
23/06:00am 20.8 23.0 16.5 76 2.6 CALM 0 0 0 0 1005.0 1004.9 0.0
23/05:30am 20.4 22.5 16.3 77 2.5 CALM 0 0 0 0 1004.8 1004.7 0.0
23/05:00am 20.3 22.3 16.0 76 2.6 CALM 0 0 0 0 1005.1 1005.0 0.0
23/04:30am 23.1 22.9 13.7 55 5.5 WNW 7 11 4 6 1005.1 1005.0 0.0
23/04:00am 22.2 24.2 15.9 67 3.8 CALM 0 0 0 0 1005.3 1005.2 0.0
23/03:30am 21.7 24.2 17.2 75 2.8 CALM 0 0 0 0 1005.1 1005.0 0.0
23/03:00am 21.0 23.4 17.1 78 2.4 CALM 0 0 0 0 1005.2 1005.1 0.0
23/02:30am 20.7 22.7 16.0 74 2.8 CALM 0 0 0 0 1005.8 1005.7 0.0
23/02:00am 21.3 23.2 15.8 71 3.3 CALM 0 0 0 0 1006.3 1006.2 0.0
23/01:30am 21.6 23.4 15.6 68 3.6 CALM 0 0 0 0 1006.5 1006.4 0.0
23/01:00am 21.6 23.8 16.5 73 3.1 CALM 0 0 0 0 1006.9 1006.8 0.0
23/12:30am 21.4 23.5 16.3 72 3.1 CALM 0 0 0 0 1006.8 1006.7 0.0
23/12:00am 21.3 23.5 16.4 73 3.0 CALM 0 0 0 0 1006.8 1006.7 0.0
 
Date/Time
CDT
Temp
°C
App
Temp
°C
Dew
Point
°C
Rel
Hum
%
Delta-T
°C
Wind Press
QNH
hPa
Press
MSL
hPa
Rain since
9am
mm
Dir  Spd
km/h
Gust
km/h
Spd
kts
Gust
kts
22/11:30pm 21.7 23.5 15.5 68 3.7 CALM 0 0 0 0 1007.0 1006.9 0.0
22/11:00pm 22.7 25.0 16.7 69 3.7 CALM 0 0 0 0 1007.4 1007.3 0.0
22/10:30pm 22.2 24.7 17.2 73 3.1 CALM 0 0 0 0 1007.8 1007.7 0.0
22/10:00pm 22.7 24.7 16.1 66 4.0 CALM 0 0 0 0 1007.9 1007.8 0.0
22/09:30pm 23.6 25.8 16.4 64 4.4 CALM 0 0 0 0 1007.9 1007.8 0.0
22/09:00pm 26.1 28.5 17.1 57 5.6 CALM 0 0 0 0 1007.9 1007.8 0.0
22/08:30pm 27.6 29.7 16.3 50 7.0 CALM 0 0 0 0 1007.9 1007.8 0.0
22/08:00pm 30.0 30.8 12.6 34 10.3 CALM 0 0 0 0 1007.8 1007.7 0.0
22/07:30pm 31.8 32.3 11.7 29 11.8 CALM 0 0 0 0 1007.8 1007.7 0.0
22/07:00pm 34.0 32.3 7.6 19 14.7 ESE 6 7 3 4 1007.6 1007.5 0.0
22/06:30pm 33.5 32.3 9.6 23 13.7 ESE 6 7 3 4 1007.5 1007.4 0.0
22/06:00pm 33.6 31.9 7.7 20 14.4 E 6 9 3 5 1007.7 1007.6 0.0
22/05:30pm 33.8 31.9 6.9 19 14.8 N 6 11 3 6 1007.9 1007.8 0.0
22/05:00pm 34.1 32.2 4.8 16 15.6 N 4 13 2 7 1008.3 1008.2 0.0
22/04:30pm 33.6 30.6 6.1 18 14.9 NNW 11 19 6 10 1008.8 1008.7 0.0
22/04:00pm 33.6 30.4 6.8 19 14.7 NNE 13 20 7 11 1009.1 1009.0 0.0
22/03:30pm 33.1 30.5 7.6 20 14.1 NNE 11 19 6 10 1009.3 1009.2 0.0
22/03:00pm 32.7 30.0 7.2 20 14.0 NNW 11 17 6 9 1009.7 1009.6 0.0
22/02:30pm 32.4 30.1 7.5 21 13.7 E 9 13 5 7 1010.0 1009.9 0.0
22/02:00pm 32.2 29.4 6.8 20 13.8 NNE 11 20 6 11 1010.4 1010.3 0.0
22/01:30pm 31.0 27.6 7.6 23 12.8 N 15 20 8 11 1011.0 1010.9 0.0
22/01:00pm 30.9 27.8 7.4 23 12.8 N 13 20 7 11 1011.6 1011.5 0.0
22/12:30pm 30.6 27.4 6.9 22 12.8 NNE 13 24 7 13 1011.9 1011.8 0.0
22/12:00pm 30.0 26.8 8.4 26 11.9 NNE 15 22 8 12 1012.4 1012.3 0.0
22/11:30am 29.3 25.5 8.9 28 11.3 NNE 19 26 10 14 1012.6 1012.5 0.0
22/11:00am 28.7 25.0 9.3 29 10.8 NE 19 24 10 13 1012.9 1012.7 0.0
22/10:30am 28.1 25.3 10.1 32 10.1 NE 15 24 8 13 1013.0 1012.8 0.0
22/10:00am 26.6 23.4 9.8 34 9.3 ENE 17 26 9 14 1013.2 1013.0 0.0
22/09:30am 25.2 21.3 9.5 37 8.6 ENE 20 28 11 15 1013.6 1013.4 0.0
22/09:00am 23.3 20.1 9.9 42 7.3 ENE 17 24 9 13 1013.8 1013.6 0.0
22/08:30am 21.9 18.8 10.4 48 6.3 ENE 17 24 9 13 1013.7 1013.5 0.0
22/08:00am 20.1 18.6 12.0 59 4.5 E 11 15 6 8 1013.6 1013.4 0.0
22/07:30am 17.4 16.3 12.1 71 2.9 ESE 9 11 5 6 1013.2 1013.0 0.0
22/07:00am 15.7 14.6 11.8 77 2.1 SE 9 11 5 6 1013.0 1012.8 0.0
22/06:30am 14.2 13.7 12.0 87 1.2 SE 6 7 3 4 1012.6 1012.5 0.0
22/06:00am 14.5 13.3 11.5 82 1.6 SSE 9 9 5 5 1012.8 1012.6 0.0
22/05:30am 14.8 14.1 12.0 83 1.5 SSE 7 9 4 5 1012.6 1012.5 0.0
22/05:00am 14.8 15.6 12.4 85 1.3 CALM 0 0 0 0 1012.3 1012.2 0.0
22/04:30am 14.7 14.4 12.7 88 1.1 SSE 6 7 3 4 1012.2 1012.1 0.0
22/04:00am 15.3 16.3 13.1 87 1.2 CALM 0 0 0 0 1012.3 1012.2 0.0
22/03:30am 15.5 15.4 13.4 87 1.2 SE 6 9 3 5 1012.4 1012.3 0.0
22/03:00am 15.9 15.6 13.4 85 1.4 SSE 7 9 4 5 1012.6 1012.5 0.0
22/02:30am 16.8 15.7 13.2 79 2.0 SSE 11 15 6 8 1012.8 1012.6 0.0
22/02:00am 17.3 15.4 13.0 76 2.4 S 15 17 8 9 1012.8 1012.6 0.0
22/01:30am 17.7 16.1 12.9 73 2.7 S 13 17 7 9 1013.1 1012.9 0.0
22/01:00am 18.2 15.7 11.2 63 3.8 S 15 19 8 10 1013.1 1012.9 0.0
22/12:30am 17.5 17.0 10.6 64 3.7 S 4 15 2 8 1013.3 1013.1 0.0
22/12:00am 17.1 16.3 12.8 76 2.4 SSE 9 9 5 5 1013.2 1013.0 0.0
 
Date/Time
CDT
Temp
°C
App
Temp
°C
Dew
Point
°C
Rel
Hum
%
Delta-T
°C
Wind Press
QNH
hPa
Press
MSL
hPa
Rain since
9am
mm
Dir  Spd
km/h
Gust
km/h
Spd
kts
Gust
kts
21/11:30pm 18.1 17.3 12.9 71 2.9 SE 9 9 5 5 1013.1 1012.9 0.0
21/11:00pm 19.1 17.3 11.0 59 4.4 SSE 11 11 6 6 1013.2 1013.0 0.0
21/10:30pm 19.1 18.2 12.5 65 3.7 SSE 9 11 5 6 1013.2 1013.0 0.0
21/10:00pm 19.5 20.9 14.3 72 3.0 CALM 0 0 0 0 1013.2 1013.0 0.0
21/09:30pm 20.0 21.3 14.1 69 3.4 CALM 0 0 0 0 1012.9 1012.7 0.0
21/09:00pm 21.5 22.0 12.9 58 4.9 S 2 9 1 5 1012.6 1012.5 0.0
21/08:30pm 23.5 23.7 13.1 52 6.0 SSE 4 7 2 4 1012.5 1012.4 0.0
21/08:00pm 26.9 25.6 10.1 34 9.4 SSE 7 11 4 6 1012.3 1012.2 0.0
21/07:30pm 28.6 26.7 7.4 26 11.4 SSE 7 11 4 6 1012.0 1011.9 0.0
21/07:00pm 29.1 26.9 8.0 26 11.5 ESE 9 13 5 7 1011.8 1011.7 0.0
21/06:30pm 29.3 26.6 5.4 22 12.5 SE 9 13 5 7 1011.8 1011.7 0.0
21/06:00pm 29.2 26.9 5.5 22 12.4 SE 7 13 4 7 1011.7 1011.6 0.0
21/05:30pm 28.8 26.1 5.4 22 12.2 ESE 9 17 5 9 1011.8 1011.7 0.0
21/05:00pm 28.7 25.7 4.2 21 12.5 SE 9 17 5 9 1011.9 1011.8 0.0
21/04:30pm 28.4 25.1 4.6 22 12.2 E 11 20 6 11 1012.3 1012.2 0.0
21/04:00pm 28.1 24.8 4.7 22 12.0 ESE 11 19 6 10 1012.6 1012.5 0.0

Other Formats:

Comma delimited format used in spreadsheet applications
http://www.bom.gov.au/fwo/IDS60801/IDS60801.94682.axf

JavaScript Object Notation format (JSON) in row-major order
http://www.bom.gov.au/fwo/IDS60801/IDS60801.94682.json